createdAt,value
2019-02-16T00:00:11.595Z,14.93
2019-02-16T00:02:41.272Z,19.37
2019-02-16T00:05:09.027Z,15.28
2019-02-16T00:07:36.556Z,15.28
2019-02-16T00:10:04.220Z,13.62
2019-02-16T00:12:31.776Z,16.10
2019-02-16T00:15:00.020Z,12.40
2019-02-16T00:17:27.843Z,13.50
2019-02-16T00:19:55.370Z,11.08
2019-02-16T00:22:22.708Z,13.88
2019-02-16T00:24:50.209Z,12.45
2019-02-16T00:27:17.882Z,14.28
2019-02-16T00:29:45.411Z,13.70
2019-02-16T00:32:12.781Z,12.88
2019-02-16T00:34:40.564Z,12.73
2019-02-16T00:37:08.087Z,12.65
2019-02-16T00:39:35.620Z,16.42
2019-02-16T00:42:03.463Z,14.60
2019-02-16T00:44:31.166Z,14.45
2019-02-16T00:46:58.876Z,14.10
2019-02-16T00:49:26.692Z,15.23
2019-02-16T00:51:54.496Z,12.78
2019-02-16T00:54:21.975Z,13.50
2019-02-16T00:56:49.391Z,11.68
2019-02-16T00:59:16.970Z,17.10
2019-02-16T01:01:44.604Z,13.30
2019-02-16T01:04:13.864Z,14.15
2019-02-16T01:06:41.684Z,11.57
2019-02-16T01:09:09.145Z,16.77
2019-02-16T01:11:36.630Z,19.70
2019-02-16T01:14:03.999Z,16.52
2019-02-16T01:16:31.503Z,15.15
2019-02-16T01:18:59.489Z,14.30
2019-02-16T01:21:26.820Z,18.27
2019-02-16T01:23:54.600Z,15.80
2019-02-16T01:26:22.020Z,14.23
2019-02-16T01:28:49.349Z,22.30
2019-02-16T01:31:16.794Z,17.40
2019-02-16T01:33:45.645Z,18.87
2019-02-16T01:36:13.101Z,15.50
2019-02-16T01:38:40.630Z,18.15
2019-02-16T01:41:08.138Z,16.87
2019-02-16T01:43:35.779Z,9.55
2019-02-16T01:46:03.233Z,9.00
2019-02-16T01:48:30.820Z,6.67
2019-02-16T01:50:58.178Z,9.48
2019-02-16T01:53:25.914Z,11.35
2019-02-16T01:55:53.264Z,12.50
2019-02-16T01:58:20.650Z,15.63
2019-02-16T02:00:49.330Z,13.18
2019-02-16T02:03:17.197Z,6.25
2019-02-16T02:05:44.588Z,7.35
2019-02-16T02:08:12.517Z,5.67
2019-02-16T02:10:39.873Z,4.42
2019-02-16T02:13:07.556Z,6.20
2019-02-16T02:15:35.414Z,7.45
2019-02-16T02:18:02.926Z,8.63
2019-02-16T02:20:30.277Z,10.30
2019-02-16T02:22:58.016Z,5.20
2019-02-16T02:25:25.275Z,5.35
2019-02-16T02:27:52.777Z,5.90
2019-02-16T02:30:20.495Z,9.33
2019-02-16T02:32:48.000Z,6.22
2019-02-16T02:35:15.878Z,8.38
2019-02-16T02:37:44.224Z,7.30
2019-02-16T02:40:11.595Z,8.20
2019-02-16T02:42:38.947Z,7.53
2019-02-16T02:45:07.800Z,5.53
2019-02-16T02:47:35.150Z,5.58
2019-02-16T02:50:03.782Z,5.65
2019-02-16T02:52:31.579Z,5.85
2019-02-16T02:54:59.051Z,7.08
2019-02-16T02:57:27.103Z,7.47
2019-02-16T02:59:54.603Z,5.83
2019-02-16T03:02:22.299Z,9.48
2019-02-16T03:04:49.807Z,9.43
2019-02-16T03:07:17.275Z,9.65
2019-02-16T03:09:45.105Z,8.18
2019-02-16T03:12:12.484Z,9.05
2019-02-16T03:14:40.225Z,7.65
2019-02-16T03:17:07.795Z,8.73
2019-02-16T03:19:35.946Z,6.55
2019-02-16T03:22:03.525Z,6.92
2019-02-16T03:24:30.893Z,5.35
2019-02-16T03:27:30.587Z,9.60
2019-02-16T03:30:23.328Z,6.42
2019-02-16T03:33:31.743Z,10.00
2019-02-16T03:36:30.983Z,10.35
2019-02-16T03:39:19.335Z,8.38
2019-02-16T03:41:47.152Z,5.28
2019-02-16T03:44:14.603Z,7.58
2019-02-16T03:46:42.027Z,6.97
2019-02-16T03:49:09.409Z,7.25
2019-02-16T03:51:37.089Z,9.40
2019-02-16T03:54:04.760Z,5.40
2019-02-16T03:56:32.433Z,6.00
2019-02-16T03:58:59.944Z,6.37
2019-02-16T04:01:27.619Z,8.00
2019-02-16T04:03:55.148Z,4.92
2019-02-16T04:06:22.959Z,5.25
2019-02-16T04:08:50.293Z,5.30
2019-02-16T04:11:18.046Z,7.80
2019-02-16T04:13:45.644Z,21.87
2019-02-16T04:16:13.280Z,9.85
2019-02-16T04:18:41.034Z,10.30
2019-02-16T04:21:08.400Z,10.80
2019-02-16T04:23:36.348Z,9.50
2019-02-16T04:26:07.546Z,8.15
2019-02-16T04:28:34.992Z,9.25
2019-02-16T04:31:02.514Z,10.98
2019-02-16T04:33:29.866Z,8.75
2019-02-16T04:35:57.341Z,6.37
2019-02-16T04:38:25.159Z,9.15
2019-02-16T04:40:52.741Z,13.35
2019-02-16T04:43:20.717Z,7.92
2019-02-16T04:45:48.030Z,10.23
2019-02-16T04:48:15.532Z,7.58
2019-02-16T04:50:43.219Z,14.00
2019-02-16T04:53:10.861Z,8.80
2019-02-16T04:55:38.518Z,11.97
2019-02-16T04:58:06.020Z,9.23
2019-02-16T05:00:33.648Z,14.55
2019-02-16T05:03:01.516Z,10.28
2019-02-16T05:05:29.317Z,12.15
2019-02-16T05:07:57.260Z,9.70
2019-02-16T05:10:24.740Z,16.45
2019-02-16T05:12:52.501Z,10.72
2019-02-16T05:15:20.431Z,15.83
2019-02-16T05:17:48.281Z,11.10
2019-02-16T05:20:16.481Z,8.98
2019-02-16T05:22:45.047Z,11.85
2019-02-16T05:25:13.071Z,14.15
2019-02-16T05:27:40.594Z,12.47
2019-02-16T05:30:08.181Z,9.93
2019-02-16T05:32:36.062Z,12.03
2019-02-16T05:35:03.556Z,10.43
2019-02-16T05:37:31.081Z,15.18
2019-02-16T05:39:58.428Z,14.90
2019-02-16T05:42:26.259Z,10.03
2019-02-16T05:44:53.745Z,14.60
2019-02-16T05:47:21.905Z,13.45
2019-02-16T05:49:49.281Z,12.20
2019-02-16T05:52:16.836Z,20.35
2019-02-16T05:54:44.484Z,15.60
2019-02-16T05:57:12.267Z,17.30
2019-02-16T05:59:40.807Z,15.95
2019-02-16T06:02:08.285Z,18.20
2019-02-16T06:04:36.018Z,19.73
2019-02-16T06:07:03.413Z,18.50
2019-02-16T06:09:30.821Z,17.55
2019-02-16T06:11:58.960Z,17.25
2019-02-16T06:14:26.529Z,23.85
2019-02-16T06:16:54.264Z,24.10
2019-02-16T06:19:21.749Z,21.95
2019-02-16T06:21:49.436Z,20.20
2019-02-16T06:24:16.921Z,24.10
2019-02-16T06:26:44.434Z,18.35
2019-02-16T06:29:12.242Z,16.25
2019-02-16T06:31:39.743Z,11.73
2019-02-16T06:34:07.473Z,13.05
2019-02-16T06:36:40.143Z,14.18
2019-02-16T06:39:07.867Z,11.28
2019-02-16T06:41:35.248Z,11.50
2019-02-16T06:44:02.931Z,10.93
2019-02-16T06:46:30.322Z,10.40
2019-02-16T06:48:58.150Z,14.68
2019-02-16T06:51:25.811Z,16.65
2019-02-16T06:53:53.320Z,14.00
2019-02-16T06:56:28.015Z,15.55
2019-02-16T06:58:55.654Z,12.80
2019-02-16T07:01:24.216Z,17.92
2019-02-16T07:03:51.764Z,19.67
2019-02-16T07:06:19.218Z,16.50
2019-02-16T07:08:47.010Z,19.80
2019-02-16T07:11:14.702Z,14.45
2019-02-16T07:13:42.040Z,13.90
2019-02-16T07:16:38.091Z,16.70
2019-02-16T07:19:22.194Z,13.08
2019-02-16T07:21:50.802Z,17.98
2019-02-16T07:24:18.310Z,14.28
2019-02-16T07:26:45.762Z,23.38
2019-02-16T07:29:13.623Z,24.10
2019-02-16T07:31:41.138Z,22.73
2019-02-16T07:34:08.797Z,25.77
2019-02-16T07:36:36.552Z,27.30
2019-02-16T07:39:06.560Z,21.05
2019-02-16T07:41:34.047Z,26.48
2019-02-16T07:44:24.339Z,30.55
2019-02-16T07:46:57.517Z,42.33
2019-02-16T07:49:44.470Z,44.53
2019-02-16T07:52:23.062Z,37.93
2019-02-16T07:55:22.260Z,38.80
2019-02-16T07:58:15.607Z,27.30
2019-02-16T08:01:08.755Z,29.95
2019-02-16T08:03:53.189Z,22.98
2019-02-16T08:06:41.321Z,25.70
2019-02-16T08:09:44.106Z,36.75
2019-02-16T08:12:31.450Z,25.40
2019-02-16T08:15:27.668Z,22.85
2019-02-16T08:18:20.477Z,22.95
2019-02-16T08:21:22.794Z,22.80
2019-02-16T08:24:04.081Z,22.27
2019-02-16T08:26:57.262Z,25.52
2019-02-16T08:29:32.666Z,25.82
2019-02-16T08:32:16.104Z,24.00
2019-02-16T08:34:49.401Z,24.05
2019-02-16T08:37:28.825Z,13.20
2019-02-16T08:40:18.419Z,15.98
2019-02-16T08:43:17.766Z,16.37
2019-02-16T08:46:07.844Z,19.20
2019-02-16T08:49:20.648Z,19.45
2019-02-16T08:52:17.747Z,27.37
2019-02-16T08:55:15.551Z,42.55
2019-02-16T08:58:04.733Z,51.58
2019-02-16T09:00:50.781Z,70.00
2019-02-16T09:03:38.404Z,72.47
2019-02-16T09:06:28.383Z,62.43
2019-02-16T09:09:07.688Z,63.00
2019-02-16T09:11:42.004Z,51.00
2019-02-16T09:14:28.165Z,28.43
2019-02-16T09:17:13.975Z,28.23
2019-02-16T09:19:51.506Z,13.90
2019-02-16T09:22:30.454Z,9.07
2019-02-16T09:25:23.855Z,11.53
2019-02-16T09:28:03.367Z,9.50
2019-02-16T09:31:08.631Z,6.20
2019-02-16T09:33:59.697Z,8.50
2019-02-16T09:36:33.748Z,14.27
2019-02-16T09:39:24.779Z,10.30
2019-02-16T09:42:12.048Z,6.43
2019-02-16T09:44:54.790Z,5.17
2019-02-16T09:47:31.221Z,9.17
2019-02-16T09:50:06.336Z,11.73
2019-02-16T09:52:55.219Z,11.07
2019-02-16T09:55:42.107Z,5.80
2019-02-16T09:58:32.298Z,10.80
2019-02-16T10:01:28.735Z,11.87
2019-02-16T10:04:07.272Z,11.87
2019-02-16T10:06:54.432Z,15.97
2019-02-16T10:09:31.333Z,15.83
2019-02-16T10:12:09.443Z,18.80
2019-02-16T10:14:59.855Z,17.10
2019-02-16T10:17:57.879Z,15.20
2019-02-16T10:20:40.547Z,9.03
2019-02-16T10:23:30.925Z,12.33
2019-02-16T10:26:21.688Z,8.03
2019-02-16T10:29:14.332Z,8.60
2019-02-16T10:32:00.820Z,6.07
2019-02-16T10:34:50.660Z,7.40
2019-02-16T10:37:24.868Z,7.50
2019-02-16T10:40:10.899Z,8.60
2019-02-16T10:42:56.553Z,10.63
2019-02-16T10:45:49.704Z,8.37
2019-02-16T10:48:31.327Z,10.43
2019-02-16T10:51:15.338Z,13.87
2019-02-16T10:53:57.744Z,7.80
2019-02-16T10:56:48.131Z,10.70
2019-02-16T10:59:29.981Z,17.30
2019-02-16T11:02:15.383Z,17.90
2019-02-16T11:05:11.597Z,21.90
2019-02-16T11:08:17.167Z,39.57
2019-02-16T11:10:55.875Z,27.70
2019-02-16T11:13:29.565Z,15.53
2019-02-16T11:16:16.715Z,10.90
2019-02-16T11:19:02.413Z,11.20
2019-02-16T11:22:04.895Z,8.87
2019-02-16T11:24:41.510Z,13.43
2019-02-16T11:27:18.183Z,13.10
2019-02-16T11:29:55.328Z,13.13
2019-02-16T11:32:40.733Z,12.50
2019-02-16T11:35:26.660Z,11.37
2019-02-16T11:38:05.677Z,12.17
2019-02-16T11:40:52.677Z,12.50
2019-02-16T11:43:28.216Z,10.27
2019-02-16T11:46:11.540Z,12.80
2019-02-16T11:49:09.417Z,14.10
2019-02-16T11:51:58.956Z,11.33
2019-02-16T11:54:33.403Z,8.53
2019-02-16T11:57:35.745Z,13.07
2019-02-16T12:00:22.141Z,10.10
2019-02-16T12:02:57.646Z,9.47
2019-02-16T12:05:32.010Z,12.60
2019-02-16T12:08:09.186Z,15.87
2019-02-16T12:11:11.280Z,13.63
2019-02-16T12:13:51.479Z,10.13
2019-02-16T12:16:41.367Z,12.93
2019-02-16T12:19:26.740Z,15.03
2019-02-16T12:22:12.799Z,8.60
2019-02-16T12:25:06.389Z,9.77
2019-02-16T12:27:54.195Z,13.73
2019-02-16T12:30:40.633Z,11.90
2019-02-16T12:33:42.551Z,16.27
2019-02-16T12:36:32.148Z,24.03
2019-02-16T12:39:22.310Z,28.50
2019-02-16T12:42:11.732Z,26.40
2019-02-16T12:44:59.850Z,22.00
2019-02-16T12:47:47.114Z,17.80
2019-02-16T12:50:32.659Z,19.17
2019-02-16T12:53:18.049Z,17.43
2019-02-16T12:56:04.928Z,17.27
2019-02-16T12:58:37.444Z,18.97
2019-02-16T13:01:32.928Z,19.30
2019-02-16T13:04:29.232Z,16.07
2019-02-16T13:07:07.021Z,19.33
2019-02-16T13:10:01.221Z,16.77
2019-02-16T13:12:41.241Z,18.00
2019-02-16T13:15:23.625Z,15.87
2019-02-16T13:18:28.540Z,20.93
2019-02-16T13:21:15.820Z,19.70
2019-02-16T13:24:05.510Z,21.90
2019-02-16T13:26:48.868Z,20.63
2019-02-16T13:29:34.281Z,22.63
2019-02-16T13:32:33.550Z,20.43
2019-02-16T13:35:19.042Z,19.03
2019-02-16T13:38:11.871Z,21.80
2019-02-16T13:41:07.935Z,21.30
2019-02-16T13:44:01.038Z,18.23
2019-02-16T13:46:34.033Z,21.77
2019-02-16T13:49:24.336Z,13.60
2019-02-16T13:52:01.472Z,19.77
2019-02-16T13:54:40.164Z,16.20
2019-02-16T13:57:19.139Z,15.53
2019-02-16T13:59:58.365Z,18.12
2019-02-16T14:02:43.408Z,20.43
2019-02-16T14:05:42.528Z,19.93
2019-02-16T14:08:15.028Z,17.27
2019-02-16T14:11:06.521Z,18.30
2019-02-16T14:13:43.504Z,16.50
2019-02-16T14:16:34.737Z,15.03
2019-02-16T14:19:02.226Z,17.10
2019-02-16T14:21:29.696Z,18.43
2019-02-16T14:23:57.838Z,17.10
2019-02-16T14:26:25.559Z,15.53
2019-02-16T14:28:53.115Z,20.37
2019-02-16T14:31:28.274Z,16.83
2019-02-16T14:33:50.061Z,15.37
2019-02-16T14:36:17.510Z,18.07
2019-02-16T14:39:13.865Z,17.27
2019-02-16T14:41:41.619Z,16.43
2019-02-16T14:44:09.014Z,16.30
2019-02-16T14:46:36.492Z,23.03
2019-02-16T14:49:04.047Z,19.20
2019-02-16T14:51:31.393Z,16.40
2019-02-16T14:53:58.753Z,21.27
2019-02-16T14:56:26.511Z,23.10
2019-02-16T14:58:53.908Z,17.20
2019-02-16T15:01:22.039Z,14.00
2019-02-16T15:03:49.744Z,19.20
2019-02-16T15:06:17.189Z,16.10
2019-02-16T15:08:44.826Z,19.57
2019-02-16T15:11:12.486Z,24.10
2019-02-16T15:13:39.983Z,22.40
2019-02-16T15:16:07.479Z,25.87
2019-02-16T15:18:34.879Z,25.87
2019-02-16T15:21:02.340Z,24.33
2019-02-16T15:23:29.840Z,28.93
2019-02-16T15:26:01.005Z,21.27
2019-02-16T15:28:26.651Z,22.07
2019-02-16T15:30:53.984Z,24.00
2019-02-16T15:33:21.961Z,18.70
2019-02-16T15:35:49.445Z,22.33
2019-02-16T15:38:17.489Z,24.43
2019-02-16T15:40:45.028Z,21.77
2019-02-16T15:43:12.387Z,22.20
2019-02-16T15:45:40.135Z,22.00
2019-02-16T15:48:07.861Z,22.80
2019-02-16T15:50:35.630Z,23.47
2019-02-16T15:53:03.453Z,22.20
2019-02-16T15:55:31.347Z,17.83
2019-02-16T15:57:59.487Z,17.63
2019-02-16T16:00:28.250Z,18.60
2019-02-16T16:02:56.394Z,19.17
2019-02-16T16:05:24.220Z,23.87
2019-02-16T16:08:02.769Z,16.57
2019-02-16T16:10:37.937Z,20.20
2019-02-16T16:13:17.991Z,16.83
2019-02-16T16:15:59.173Z,23.37
2019-02-16T16:18:54.714Z,22.17
2019-02-16T16:21:47.765Z,20.90
2019-02-16T16:24:33.189Z,29.83
2019-02-16T16:27:24.821Z,19.17
2019-02-16T16:30:06.194Z,23.87
2019-02-16T16:32:53.885Z,18.63
2019-02-16T16:35:28.587Z,19.97
2019-02-16T16:38:18.531Z,18.83
2019-02-16T16:40:53.653Z,18.60
2019-02-16T16:43:40.973Z,17.70
2019-02-16T16:46:20.450Z,20.90
2019-02-16T16:49:07.680Z,16.67
2019-02-16T16:51:57.528Z,15.03
2019-02-16T16:54:47.554Z,11.80
2019-02-16T16:57:34.517Z,15.20
2019-02-16T17:00:30.593Z,17.70
2019-02-16T17:03:20.487Z,11.30
2019-02-16T17:06:20.436Z,16.23
2019-02-16T17:09:14.480Z,9.93
2019-02-16T17:11:58.673Z,9.57
2019-02-16T17:14:46.194Z,23.73
2019-02-16T17:17:32.006Z,29.97
2019-02-16T17:20:28.360Z,27.93
2019-02-16T17:23:15.450Z,19.10
2019-02-16T17:26:17.616Z,13.30
2019-02-16T17:28:57.614Z,9.33
2019-02-16T17:31:38.057Z,13.47
2019-02-16T17:34:40.320Z,23.80
2019-02-16T17:37:14.547Z,30.03
2019-02-16T17:40:10.914Z,22.50
2019-02-16T17:43:13.780Z,16.50
2019-02-16T17:46:01.043Z,17.03
2019-02-16T17:48:59.897Z,13.17
2019-02-16T17:51:52.687Z,15.83
2019-02-16T17:54:30.603Z,16.97
2019-02-16T17:57:07.398Z,18.97
2019-02-16T17:59:42.088Z,20.10
2019-02-16T18:02:34.932Z,15.10
2019-02-16T18:05:27.069Z,14.83
2019-02-16T18:08:14.340Z,12.17
2019-02-16T18:11:05.167Z,12.97
2019-02-16T18:13:52.162Z,32.87
2019-02-16T18:16:33.214Z,73.83
2019-02-16T18:19:20.301Z,120.40
2019-02-16T18:22:03.555Z,103.67
2019-02-16T18:24:43.036Z,94.87
2019-02-16T18:27:42.079Z,65.87
2019-02-16T18:30:37.330Z,63.37
2019-02-16T18:33:23.324Z,40.20
2019-02-16T18:36:22.780Z,36.90
2019-02-16T18:39:04.274Z,22.67
2019-02-16T18:41:43.462Z,21.40
2019-02-16T18:44:30.692Z,27.40
2019-02-16T18:47:16.431Z,25.60
2019-02-16T18:50:07.085Z,33.50
2019-02-16T18:52:59.818Z,39.00
2019-02-16T18:55:36.406Z,37.00
2019-02-16T18:58:22.556Z,38.67
2019-02-16T19:01:09.017Z,38.27
2019-02-16T19:03:44.438Z,29.30
2019-02-16T19:06:21.092Z,29.57
2019-02-16T19:09:09.066Z,20.57
2019-02-16T19:11:55.670Z,23.07
2019-02-16T19:14:41.292Z,17.17
2019-02-16T19:17:16.923Z,14.60
2019-02-16T19:20:02.997Z,13.67
2019-02-16T19:22:50.372Z,23.17
2019-02-16T19:25:35.946Z,28.37
2019-02-16T19:28:26.562Z,23.00
2019-02-16T19:31:23.623Z,28.63
2019-02-16T19:34:14.943Z,20.00
2019-02-16T19:37:10.716Z,11.90
2019-02-16T19:39:44.038Z,11.77
2019-02-16T19:42:17.098Z,17.47
2019-02-16T19:45:13.982Z,12.93
2019-02-16T19:47:59.601Z,14.50
2019-02-16T19:50:45.713Z,17.10
2019-02-16T19:53:35.750Z,13.87
2019-02-16T19:56:15.907Z,20.10
2019-02-16T19:59:01.609Z,8.60
2019-02-16T20:01:48.604Z,9.83
2019-02-16T20:04:34.146Z,8.57
2019-02-16T20:07:13.106Z,9.20
2019-02-16T20:10:03.150Z,8.50
2019-02-16T20:12:55.928Z,12.33
2019-02-16T20:15:51.817Z,11.07
2019-02-16T20:18:34.797Z,10.30
2019-02-16T20:21:24.160Z,18.50
2019-02-16T20:24:00.882Z,16.60
2019-02-16T20:26:48.191Z,14.33
2019-02-16T20:29:39.513Z,21.50
2019-02-16T20:32:15.637Z,25.07
2019-02-16T20:34:53.051Z,28.20
2019-02-16T20:37:55.238Z,24.63
2019-02-16T20:40:39.545Z,27.90
2019-02-16T20:43:27.129Z,27.60
2019-02-16T20:46:26.033Z,17.27
2019-02-16T20:49:09.903Z,13.13
2019-02-16T20:52:11.882Z,13.60
2019-02-16T20:54:57.672Z,13.67
2019-02-16T20:57:31.670Z,15.23
2019-02-16T21:00:21.429Z,19.93
2019-02-16T21:03:02.026Z,17.70
2019-02-16T21:05:49.223Z,16.23
2019-02-16T21:08:34.967Z,15.30
2019-02-16T21:11:21.581Z,12.63
2019-02-16T21:14:09.974Z,10.13
2019-02-16T21:16:59.842Z,11.60
2019-02-16T21:19:44.670Z,14.00
2019-02-16T21:22:30.282Z,11.20
2019-02-16T21:25:07.058Z,7.90
2019-02-16T21:27:59.893Z,14.57
2019-02-16T21:30:45.807Z,17.37
2019-02-16T21:33:20.080Z,22.07
2019-02-16T21:36:00.160Z,22.80
2019-02-16T21:39:02.533Z,18.77
2019-02-16T21:41:51.498Z,9.70
2019-02-16T21:44:37.646Z,9.30
2019-02-16T21:47:24.701Z,9.93
2019-02-16T21:50:07.984Z,10.67
2019-02-16T21:52:51.809Z,11.63
2019-02-16T21:55:41.752Z,8.93
2019-02-16T21:58:29.363Z,13.50
2019-02-16T22:01:11.957Z,19.63
2019-02-16T22:04:08.031Z,17.70
2019-02-16T22:07:00.897Z,23.30
2019-02-16T22:09:57.417Z,15.53
2019-02-16T22:12:47.312Z,18.83
2019-02-16T22:15:14.649Z,17.30
2019-02-16T22:17:42.335Z,14.73
2019-02-16T22:20:10.455Z,15.70
2019-02-16T22:22:37.954Z,13.13
2019-02-16T22:25:05.709Z,11.40
2019-02-16T22:27:33.104Z,10.57
2019-02-16T22:30:01.708Z,10.53
2019-02-16T22:32:29.245Z,11.10
2019-02-16T22:34:56.601Z,11.40
2019-02-16T22:37:24.071Z,14.90
2019-02-16T22:39:51.835Z,12.73
2019-02-16T22:42:19.207Z,10.17
2019-02-16T22:44:46.582Z,9.87
2019-02-16T22:47:14.399Z,11.95
2019-02-16T22:49:42.919Z,14.47
2019-02-16T22:52:10.811Z,11.10
2019-02-16T22:54:38.579Z,13.65
2019-02-16T22:57:06.340Z,16.35
2019-02-16T22:59:33.715Z,13.22
2019-02-16T23:02:01.182Z,13.38
2019-02-16T23:04:28.891Z,12.63
2019-02-16T23:06:56.392Z,11.28
2019-02-16T23:09:27.747Z,10.98
2019-02-16T23:11:55.300Z,11.45
2019-02-16T23:14:24.182Z,11.00
2019-02-16T23:16:51.920Z,14.13
2019-02-16T23:19:19.500Z,13.28
2019-02-16T23:21:47.023Z,10.88
2019-02-16T23:24:14.512Z,9.10
2019-02-16T23:26:42.570Z,7.07
2019-02-16T23:29:10.080Z,7.15
2019-02-16T23:31:37.535Z,6.20
2019-02-16T23:34:05.072Z,5.47
2019-02-16T23:36:32.600Z,11.12
2019-02-16T23:39:00.094Z,11.43
2019-02-16T23:41:27.688Z,10.90
2019-02-16T23:43:55.245Z,13.35
2019-02-16T23:46:22.726Z,10.55
2019-02-16T23:48:50.405Z,10.45
2019-02-16T23:51:17.797Z,13.83
2019-02-16T23:53:45.515Z,16.97
2019-02-16T23:56:13.019Z,24.12
2019-02-16T23:58:48.914Z,21.40
